Time,TemperatureF,DewpointF,PressureIn,WindDirection,WindDirectionDegrees,WindSpeedMPH,WindSpeedGustMPH,Humidity,HourlyPrecipIn,Conditions,Clouds,dailyrainin,SoftwareType,DateUTC
2013-04-27 00:04:00,55.8,46.4,30.36,East,96,0.0,0.0,72,0.00,,,0.00,WUHU216WMR968SP,2013-04-27 04:04:00,
2013-04-27 00:09:00,55.8,46.4,30.36,East,96,0.0,0.0,72,0.00,,,0.00,WUHU216WMR968SP,2013-04-27 04:09:00,
2013-04-27 00:14:00,55.8,46.4,30.36,East,96,0.0,0.0,71,0.00,,,0.00,WUHU216WMR968SP,2013-04-27 04:14:00,
2013-04-27 00:19:00,55.8,46.4,30.36,East,96,0.0,0.0,72,0.00,,,0.00,WUHU216WMR968SP,2013-04-27 04:19:00,
2013-04-27 00:24:00,55.6,46.4,30.36,East,96,0.0,0.0,72,0.00,,,0.00,WUHU216WMR968SP,2013-04-27 04:24:00,
2013-04-27 00:29:00,55.6,46.4,30.36,East,97,0.0,0.0,72,0.00,,,0.00,WUHU216WMR968SP,2013-04-27 04:29:00,
2013-04-27 00:34:00,55.8,46.4,30.36,East,98,0.0,0.0,72,0.00,,,0.00,WUHU216WMR968SP,2013-04-27 04:34:00,
2013-04-27 00:39:00,55.9,46.4,30.36,NE,47,0.0,5.4,71,0.00,,,0.00,WUHU216WMR968SP,2013-04-27 04:39:00,
2013-04-27 00:44:00,55.9,46.4,30.36,NE,47,0.0,5.4,72,0.00,,,0.00,WUHU216WMR968SP,2013-04-27 04:44:00,
2013-04-27 00:49:00,55.6,46.4,30.36,SW,217,0.0,3.3,73,0.00,,,0.00,WUHU216WMR968SP,2013-04-27 04:49:00,
2013-04-27 00:56:00,56.1,46.4,30.36,WNW,283,0.0,0.0,70,0.00,,,0.00,WUHU216WMR968SP,2013-04-27 04:56:00,
2013-04-27 01:01:00,56.1,46.4,30.36,WNW,283,0.0,0.0,70,0.00,,,0.00,WUHU216WMR968SP,2013-04-27 05:01:00,
2013-04-27 01:06:00,56.3,48.2,30.36,WNW,283,0.0,0.0,71,0.00,,,0.00,WUHU216WMR968SP,2013-04-27 05:06:00,
2013-04-27 01:11:00,56.1,46.4,30.36,WNW,283,0.0,0.0,70,0.00,,,0.00,WUHU216WMR968SP,2013-04-27 05:11:00,
2013-04-27 01:16:00,56.3,48.2,30.36,WNW,283,0.0,0.0,70,0.00,,,0.00,WUHU216WMR968SP,2013-04-27 05:16:00,
2013-04-27 01:21:00,56.3,48.2,30.36,WNW,283,0.0,0.0,70,0.00,,,0.00,WUHU216WMR968SP,2013-04-27 05:21:00,
2013-04-27 01:26:00,56.1,46.4,30.36,WNW,283,0.0,0.0,71,0.00,,,0.00,WUHU216WMR968SP,2013-04-27 05:26:00,
2013-04-27 01:31:00,55.9,46.4,30.36,WNW,283,0.0,0.0,71,0.00,,,0.00,WUHU216WMR968SP,2013-04-27 05:31:00,
2013-04-27 01:36:00,55.9,46.4,30.36,WNW,283,0.0,0.0,72,0.00,,,0.00,WUHU216WMR968SP,2013-04-27 05:36:00,
2013-04-27 01:41:00,55.8,46.4,30.36,WNW,283,0.0,0.0,72,0.00,,,0.00,WUHU216WMR968SP,2013-04-27 05:41:00,
2013-04-27 01:46:00,55.4,46.4,30.36,WNW,283,0.0,0.0,73,0.00,,,0.00,WUHU216WMR968SP,2013-04-27 05:46:00,
2013-04-27 01:51:00,55.0,48.2,30.36,WNW,283,0.0,0.0,74,0.00,,,0.00,WUHU216WMR968SP,2013-04-27 05:51:00,
2013-04-27 01:56:00,54.9,48.2,30.36,WNW,283,0.0,0.0,75,0.00,,,0.00,WUHU216WMR968SP,2013-04-27 05:56:00,
2013-04-27 02:01:00,54.3,46.4,30.36,SE,131,4.1,4.6,77,0.00,,,0.00,WUHU216WMR968SP,2013-04-27 06:01:00,
2013-04-27 02:06:00,54.1,46.4,30.33,East,91,0.0,4.6,77,0.00,,,0.00,WUHU216WMR968SP,2013-04-27 06:06:00,
2013-04-27 02:11:00,54.0,46.4,30.33,East,91,0.0,4.1,79,0.00,,,0.00,WUHU216WMR968SP,2013-04-27 06:11:00,
2013-04-27 02:16:00,53.6,48.2,30.33,East,91,0.0,0.0,81,0.00,,,0.00,WUHU216WMR968SP,2013-04-27 06:16:00,
2013-04-27 02:22:00,53.6,48.2,30.36,East,91,0.0,0.0,82,0.00,,,0.00,WUHU216WMR968SP,2013-04-27 06:22:00,
2013-04-27 02:27:00,53.4,48.2,30.36,East,91,0.0,0.0,83,0.00,,,0.00,WUHU216WMR968SP,2013-04-27 06:27:00,
2013-04-27 02:32:00,53.2,48.2,30.36,East,91,0.0,0.0,84,0.00,,,0.00,WUHU216WMR968SP,2013-04-27 06:32:00,
2013-04-27 02:37:00,53.1,50.0,30.36,East,91,0.0,0.0,85,0.00,,,0.00,WUHU216WMR968SP,2013-04-27 06:37:00,
2013-04-27 02:42:00,53.1,50.0,30.36,East,91,0.0,0.0,85,0.00,,,0.00,WUHU216WMR968SP,2013-04-27 06:42:00,
2013-04-27 02:47:00,53.1,50.0,30.36,East,91,0.0,0.0,86,0.00,,,0.00,WUHU216WMR968SP,2013-04-27 06:47:00,
2013-04-27 02:52:00,53.1,50.0,30.33,East,91,0.0,0.0,86,0.00,,,0.00,WUHU216WMR968SP,2013-04-27 06:52:00,
2013-04-27 02:57:00,53.1,50.0,30.33,East,91,0.0,0.0,87,0.00,,,0.00,WUHU216WMR968SP,2013-04-27 06:57:00,
2013-04-27 03:02:00,52.9,50.0,30.33,East,91,0.0,0.0,88,0.00,,,0.00,WUHU216WMR968SP,2013-04-27 07:02:00,
2013-04-27 03:07:00,52.9,50.0,30.33,East,91,0.0,0.0,89,0.00,,,0.00,WUHU216WMR968SP,2013-04-27 07:07:00,
2013-04-27 03:12:00,52.9,50.0,30.33,East,91,0.0,0.0,89,0.00,,,0.00,WUHU216WMR968SP,2013-04-27 07:12:00,
2013-04-27 03:17:00,52.7,50.0,30.33,East,91,0.0,0.0,90,0.00,,,0.00,WUHU216WMR968SP,2013-04-27 07:17:00,
2013-04-27 03:22:00,52.7,50.0,30.33,East,91,0.0,0.0,90,0.00,,,0.00,WUHU216WMR968SP,2013-04-27 07:22:00,
2013-04-27 03:27:00,52.7,51.8,30.33,East,91,0.0,0.0,91,0.00,,,0.00,WUHU216WMR968SP,2013-04-27 07:27:00,
2013-04-27 03:32:00,52.5,50.0,30.33,East,91,0.0,0.0,91,0.00,,,0.00,WUHU216WMR968SP,2013-04-27 07:32:00,
2013-04-27 03:37:00,52.5,50.0,30.33,East,91,0.0,0.0,91,0.00,,,0.00,WUHU216WMR968SP,2013-04-27 07:37:00,
2013-04-27 03:42:00,52.5,50.0,30.33,East,91,0.0,0.0,92,0.00,,,0.00,WUHU216WMR968SP,2013-04-27 07:42:00,
2013-04-27 03:47:00,52.3,50.0,30.33,East,91,0.0,0.0,92,0.00,,,0.00,WUHU216WMR968SP,2013-04-27 07:47:00,
2013-04-27 03:52:00,52.3,50.0,30.36,East,91,0.0,0.0,92,0.00,,,0.00,WUHU216WMR968SP,2013-04-27 07:52:00,
2013-04-27 03:57:00,52.2,50.0,30.36,East,91,0.0,0.0,93,0.00,,,0.00,WUHU216WMR968SP,2013-04-27 07:57:00,
2013-04-27 04:02:00,52.2,50.0,30.36,East,91,0.0,0.0,93,0.00,,,0.00,WUHU216WMR968SP,2013-04-27 08:02:00,
2013-04-27 04:07:00,52.2,50.0,30.33,East,91,0.0,0.0,93,0.00,,,0.00,WUHU216WMR968SP,2013-04-27 08:07:00,
2013-04-27 04:12:00,52.2,50.0,30.33,East,91,0.0,0.0,94,0.04,,,0.04,WUHU216WMR968SP,2013-04-27 08:12:00,
2013-04-27 04:17:00,52.0,50.0,30.33,East,91,0.0,0.0,94,0.04,,,0.04,WUHU216WMR968SP,2013-04-27 08:17:00,
2013-04-27 04:22:00,52.0,50.0,30.33,East,91,0.0,0.0,94,0.04,,,0.04,WUHU216WMR968SP,2013-04-27 08:22:00,
2013-04-27 04:27:00,52.0,50.0,30.33,East,91,0.0,0.0,94,0.04,,,0.04,WUHU216WMR968SP,2013-04-27 08:27:00,
2013-04-27 04:32:00,52.0,50.0,30.33,East,91,0.0,0.0,95,0.04,,,0.04,WUHU216WMR968SP,2013-04-27 08:32:00,
2013-04-27 04:37:00,52.0,50.0,30.33,East,91,0.0,0.0,95,0.04,,,0.04,WUHU216WMR968SP,2013-04-27 08:37:00,
2013-04-27 04:42:00,52.0,50.0,30.33,East,91,0.0,0.0,95,0.04,,,0.04,WUHU216WMR968SP,2013-04-27 08:42:00,
2013-04-27 04:47:00,52.0,50.0,30.33,East,91,0.0,0.0,95,0.09,,,0.09,WUHU216WMR968SP,2013-04-27 08:47:00,
2013-04-27 04:53:00,52.0,50.0,30.33,East,91,0.0,0.0,95,0.09,,,0.09,WUHU216WMR968SP,2013-04-27 08:53:00,
2013-04-27 04:58:00,52.0,50.0,30.33,East,91,0.0,0.0,96,0.09,,,0.09,WUHU216WMR968SP,2013-04-27 08:58:00,
2013-04-27 05:03:00,52.0,50.0,30.33,East,91,0.0,0.0,96,0.09,,,0.09,WUHU216WMR968SP,2013-04-27 09:03:00,
2013-04-27 05:08:00,51.8,50.0,30.33,East,91,0.0,0.0,96,0.09,,,0.09,WUHU216WMR968SP,2013-04-27 09:08:00,
2013-04-27 05:13:00,51.8,50.0,30.33,East,91,0.0,0.0,96,0.04,,,0.09,WUHU216WMR968SP,2013-04-27 09:13:00,
2013-04-27 05:18:00,51.8,50.0,30.33,East,91,0.0,0.0,96,0.04,,,0.09,WUHU216WMR968SP,2013-04-27 09:18:00,
2013-04-27 05:23:00,51.6,50.0,30.33,East,91,0.0,0.0,96,0.04,,,0.09,WUHU216WMR968SP,2013-04-27 09:23:00,
2013-04-27 05:28:00,51.6,50.0,30.33,East,91,0.0,0.0,96,0.09,,,0.13,WUHU216WMR968SP,2013-04-27 09:28:00,
2013-04-27 05:33:00,51.6,51.8,30.33,East,91,0.0,0.0,97,0.09,,,0.13,WUHU216WMR968SP,2013-04-27 09:33:00,
2013-04-27 05:38:00,51.6,51.8,30.33,East,91,0.0,0.0,97,0.09,,,0.13,WUHU216WMR968SP,2013-04-27 09:38:00,
2013-04-27 05:43:00,51.6,51.8,30.33,East,91,0.0,0.0,97,0.09,,,0.13,WUHU216WMR968SP,2013-04-27 09:43:00,
2013-04-27 05:48:00,51.6,51.8,30.33,East,91,0.0,0.0,97,0.04,,,0.13,WUHU216WMR968SP,2013-04-27 09:48:00,
2013-04-27 05:53:00,51.6,51.8,30.30,East,100,0.0,0.0,97,0.04,,,0.13,WUHU216WMR968SP,2013-04-27 09:53:00,
2013-04-27 05:58:00,51.6,51.8,30.30,East,100,0.0,0.0,97,0.04,,,0.13,WUHU216WMR968SP,2013-04-27 09:58:00,
2013-04-27 06:03:00,51.6,51.8,30.30,ESE,108,0.0,0.0,97,0.04,,,0.13,WUHU216WMR968SP,2013-04-27 10:03:00,
2013-04-27 06:08:00,51.6,51.8,30.30,ESE,108,0.0,0.0,97,0.04,,,0.13,WUHU216WMR968SP,2013-04-27 10:08:00,
2013-04-27 06:13:00,51.6,51.8,30.30,ESE,108,0.0,0.0,97,0.04,,,0.13,WUHU216WMR968SP,2013-04-27 10:13:00,
2013-04-27 06:18:00,51.6,51.8,30.30,ESE,108,0.0,0.0,98,0.04,,,0.13,WUHU216WMR968SP,2013-04-27 10:18:00,
2013-04-27 06:23:00,51.4,51.8,30.27,ESE,108,0.0,0.0,98,0.04,,,0.13,WUHU216WMR968SP,2013-04-27 10:23:00,
2013-04-27 06:28:00,51.4,51.8,30.27,ESE,108,0.0,0.0,98,0.00,,,0.13,WUHU216WMR968SP,2013-04-27 10:28:00,
2013-04-27 06:33:00,51.4,51.8,30.27,ESE,108,0.0,0.0,98,0.00,,,0.13,WUHU216WMR968SP,2013-04-27 10:33:00,
2013-04-27 06:38:00,51.3,51.8,30.27,ESE,108,0.0,0.0,98,0.00,,,0.13,WUHU216WMR968SP,2013-04-27 10:38:00,
2013-04-27 06:43:00,51.3,51.8,30.27,ESE,108,0.0,0.0,98,0.00,,,0.13,WUHU216WMR968SP,2013-04-27 10:43:00,
2013-04-27 06:48:00,51.3,51.8,30.27,ESE,108,0.0,0.0,98,0.00,,,0.13,WUHU216WMR968SP,2013-04-27 10:48:00,
2013-04-27 06:54:00,51.3,51.8,30.30,ESE,108,0.0,0.0,98,0.00,,,0.13,WUHU216WMR968SP,2013-04-27 10:54:00,
2013-04-27 06:59:00,51.3,51.8,30.30,ESE,108,0.0,0.0,98,0.00,,,0.13,WUHU216WMR968SP,2013-04-27 10:59:00,
2013-04-27 07:04:00,51.3,51.8,30.30,ESE,108,0.0,0.0,98,0.00,,,0.13,WUHU216WMR968SP,2013-04-27 11:04:00,
2013-04-27 07:09:00,51.3,51.8,30.30,ESE,108,0.0,0.0,98,0.00,,,0.13,WUHU216WMR968SP,2013-04-27 11:09:00,
2013-04-27 07:14:00,51.3,51.8,30.30,ESE,108,0.0,0.0,98,0.00,,,0.13,WUHU216WMR968SP,2013-04-27 11:14:00,
2013-04-27 07:19:00,51.3,51.8,30.30,ESE,108,0.0,0.0,98,0.00,,,0.13,WUHU216WMR968SP,2013-04-27 11:19:00,
2013-04-27 07:24:00,51.3,51.8,30.30,ESE,108,0.0,0.0,98,0.00,,,0.13,WUHU216WMR968SP,2013-04-27 11:24:00,
2013-04-27 07:29:00,51.4,51.8,30.30,ESE,108,0.0,0.0,98,0.00,,,0.13,WUHU216WMR968SP,2013-04-27 11:29:00,
2013-04-27 07:34:00,51.4,51.8,30.30,ESE,108,0.0,0.0,98,0.00,,,0.13,WUHU216WMR968SP,2013-04-27 11:34:00,
2013-04-27 07:39:00,51.6,51.8,30.30,ESE,108,0.0,0.0,98,0.00,,,0.13,WUHU216WMR968SP,2013-04-27 11:39:00,
2013-04-27 07:44:00,51.8,51.8,30.30,ESE,108,0.0,0.0,98,0.00,,,0.13,WUHU216WMR968SP,2013-04-27 11:44:00,
2013-04-27 07:49:00,52.2,51.8,30.30,ESE,108,0.0,0.0,98,0.00,,,0.13,WUHU216WMR968SP,2013-04-27 11:49:00,
2013-04-27 07:54:00,52.3,51.8,30.27,ESE,108,0.0,0.0,98,0.00,,,0.13,WUHU216WMR968SP,2013-04-27 11:54:00,
2013-04-27 07:59:00,52.2,51.8,30.27,ESE,108,0.0,0.0,98,0.00,,,0.13,WUHU216WMR968SP,2013-04-27 11:59:00,
2013-04-27 08:04:00,52.2,51.8,30.27,ESE,108,0.0,0.0,98,0.00,,,0.13,WUHU216WMR968SP,2013-04-27 12:04:00,
2013-04-27 08:09:00,52.2,51.8,30.30,ESE,108,0.0,0.0,98,0.00,,,0.13,WUHU216WMR968SP,2013-04-27 12:09:00,
2013-04-27 08:14:00,52.3,51.8,30.30,ESE,108,0.0,0.0,98,0.00,,,0.13,WUHU216WMR968SP,2013-04-27 12:14:00,
2013-04-27 08:19:00,52.3,51.8,30.30,ESE,108,0.0,0.0,98,0.00,,,0.13,WUHU216WMR968SP,2013-04-27 12:19:00,
2013-04-27 08:24:00,52.5,51.8,30.30,ESE,108,0.0,0.0,98,0.00,,,0.13,WUHU216WMR968SP,2013-04-27 12:24:00,
2013-04-27 08:30:00,52.5,51.8,30.30,ESE,108,0.0,0.0,98,0.00,,,0.13,WUHU216WMR968SP,2013-04-27 12:30:00,
2013-04-27 08:35:00,52.5,51.8,30.30,ESE,108,0.0,0.0,98,0.00,,,0.13,WUHU216WMR968SP,2013-04-27 12:35:00,
2013-04-27 08:40:00,52.7,53.6,30.30,ESE,109,0.0,0.0,98,0.00,,,0.13,WUHU216WMR968SP,2013-04-27 12:40:00,
2013-04-27 08:45:00,52.9,53.6,30.30,ESE,109,0.0,0.0,98,0.00,,,0.13,WUHU216WMR968SP,2013-04-27 12:45:00,
2013-04-27 08:50:00,53.1,53.6,30.30,ESE,109,0.0,0.0,98,0.00,,,0.13,WUHU216WMR968SP,2013-04-27 12:50:00,
2013-04-27 08:55:00,53.1,53.6,30.30,East,92,0.0,0.0,98,0.00,,,0.13,WUHU216WMR968SP,2013-04-27 12:55:00,
2013-04-27 09:00:00,53.1,53.6,30.30,East,84,0.0,0.0,98,0.00,,,0.13,WUHU216WMR968SP,2013-04-27 13:00:00,
2013-04-27 09:05:00,53.2,53.6,30.30,East,84,0.0,0.0,98,0.00,,,0.13,WUHU216WMR968SP,2013-04-27 13:05:00,
2013-04-27 09:10:00,53.2,53.6,30.30,East,85,0.0,0.0,98,0.00,,,0.13,WUHU216WMR968SP,2013-04-27 13:10:00,
2013-04-27 09:15:00,53.4,53.6,30.30,East,85,0.0,0.0,98,0.00,,,0.13,WUHU216WMR968SP,2013-04-27 13:15:00,
2013-04-27 09:20:00,53.6,53.6,30.30,East,85,0.0,0.0,98,0.00,,,0.13,WUHU216WMR968SP,2013-04-27 13:20:00,
2013-04-27 09:25:00,53.6,53.6,30.30,East,96,0.0,0.0,98,0.00,,,0.13,WUHU216WMR968SP,2013-04-27 13:25:00,
2013-04-27 09:30:00,53.8,53.6,30.30,East,96,0.0,0.0,98,0.00,,,0.13,WUHU216WMR968SP,2013-04-27 13:30:00,
2013-04-27 09:35:00,53.8,53.6,30.30,East,96,0.0,0.0,98,0.00,,,0.13,WUHU216WMR968SP,2013-04-27 13:35:00,
2013-04-27 09:40:00,53.8,53.6,30.30,East,96,0.0,0.0,98,0.00,,,0.13,WUHU216WMR968SP,2013-04-27 13:40:00,
2013-04-27 09:48:00,53.8,53.6,30.30,East,96,0.0,0.0,98,0.00,,,0.13,WUHU216WMR968SP,2013-04-27 13:48:00,
2013-04-27 09:57:00,53.6,53.6,30.33,East,96,0.0,0.0,98,0.04,,,0.18,WUHU216WMR968SP,2013-04-27 13:57:00,
2013-04-27 10:02:00,53.6,53.6,30.33,East,96,0.0,0.0,98,0.04,,,0.18,WUHU216WMR968SP,2013-04-27 14:02:00,
2013-04-27 10:07:00,53.6,53.6,30.30,East,96,0.0,0.0,98,0.04,,,0.18,WUHU216WMR968SP,2013-04-27 14:07:00,
2013-04-27 10:12:00,53.8,53.6,30.30,East,96,0.0,0.0,98,0.09,,,0.22,WUHU216WMR968SP,2013-04-27 14:12:00,
2013-04-27 10:17:00,53.8,53.6,30.30,East,96,0.0,0.0,98,0.09,,,0.22,WUHU216WMR968SP,2013-04-27 14:17:00,
2013-04-27 10:22:00,54.0,53.6,30.30,East,96,0.0,0.0,98,0.09,,,0.22,WUHU216WMR968SP,2013-04-27 14:22:00,
2013-04-27 10:27:00,54.1,53.6,30.30,East,96,0.0,0.0,98,0.09,,,0.22,WUHU216WMR968SP,2013-04-27 14:27:00,
2013-04-27 10:32:00,54.1,53.6,30.30,East,96,0.0,0.0,98,0.09,,,0.22,WUHU216WMR968SP,2013-04-27 14:32:00,
2013-04-27 10:37:00,54.3,53.6,30.33,East,96,0.0,0.0,98,0.09,,,0.22,WUHU216WMR968SP,2013-04-27 14:37:00,
2013-04-27 10:42:00,54.3,53.6,30.33,East,96,0.0,0.0,98,0.13,,,0.26,WUHU216WMR968SP,2013-04-27 14:42:00,
2013-04-27 10:47:00,54.1,53.6,30.33,East,96,0.0,0.0,98,0.13,,,0.26,WUHU216WMR968SP,2013-04-27 14:47:00,
2013-04-27 10:52:00,54.1,53.6,30.33,East,96,0.0,0.0,98,0.18,,,0.31,WUHU216WMR968SP,2013-04-27 14:52:00,
2013-04-27 10:57:00,54.0,53.6,30.33,East,96,0.0,0.0,98,0.13,,,0.31,WUHU216WMR968SP,2013-04-27 14:57:00,
2013-04-27 11:02:00,54.0,53.6,30.33,East,96,0.0,0.0,98,0.13,,,0.31,WUHU216WMR968SP,2013-04-27 15:02:00,
2013-04-27 11:07:00,53.8,53.6,30.30,East,99,0.0,5.4,98,0.18,,,0.35,WUHU216WMR968SP,2013-04-27 15:07:00,
2013-04-27 11:12:00,53.8,53.6,30.30,ESE,108,0.0,5.4,98,0.21,,,0.43,WUHU216WMR968SP,2013-04-27 15:12:00,
2013-04-27 11:17:00,53.8,53.6,30.30,ESE,107,0.0,0.0,98,0.21,,,0.43,WUHU216WMR968SP,2013-04-27 15:17:00,
2013-04-27 11:22:00,53.8,53.6,30.30,ESE,108,0.0,0.0,98,0.25,,,0.47,WUHU216WMR968SP,2013-04-27 15:22:00,
2013-04-27 11:27:00,54.0,53.6,30.30,ESE,107,0.0,0.0,98,0.25,,,0.47,WUHU216WMR968SP,2013-04-27 15:27:00,
2013-04-27 11:32:00,54.0,53.6,30.30,ESE,107,0.0,0.0,98,0.25,,,0.47,WUHU216WMR968SP,2013-04-27 15:32:00,
2013-04-27 11:37:00,54.0,53.6,30.33,ESE,107,0.0,0.0,98,0.30,,,0.52,WUHU216WMR968SP,2013-04-27 15:37:00,
2013-04-27 11:42:00,54.1,53.6,30.33,ESE,108,0.0,0.0,98,0.25,,,0.52,WUHU216WMR968SP,2013-04-27 15:42:00,
2013-04-27 11:47:00,54.3,53.6,30.33,ESE,107,0.0,0.0,98,0.30,,,0.56,WUHU216WMR968SP,2013-04-27 15:47:00,
2013-04-27 11:52:00,54.3,53.6,30.33,ESE,107,0.0,0.0,98,0.25,,,0.56,WUHU216WMR968SP,2013-04-27 15:52:00,
2013-04-27 11:57:00,54.5,55.4,30.33,ESE,107,0.0,0.0,98,0.30,,,0.60,WUHU216WMR968SP,2013-04-27 15:57:00,
2013-04-27 12:02:00,54.5,55.4,30.33,ESE,107,0.0,0.0,98,0.30,,,0.60,WUHU216WMR968SP,2013-04-27 16:02:00,
2013-04-27 12:07:00,54.5,55.4,30.36,ESE,107,0.0,0.0,98,0.30,,,0.65,WUHU216WMR968SP,2013-04-27 16:07:00,
2013-04-27 12:12:00,54.5,55.4,30.36,ESE,107,0.0,0.0,98,0.22,,,0.65,WUHU216WMR968SP,2013-04-27 16:12:00,
2013-04-27 12:17:00,54.5,55.4,30.36,ESE,107,0.0,0.0,98,0.26,,,0.69,WUHU216WMR968SP,2013-04-27 16:17:00,
2013-04-27 12:22:00,54.5,55.4,30.33,ESE,107,0.0,0.0,98,0.22,,,0.69,WUHU216WMR968SP,2013-04-27 16:22:00,
2013-04-27 12:27:00,54.5,55.4,30.33,ESE,107,0.0,0.0,98,0.26,,,0.74,WUHU216WMR968SP,2013-04-27 16:27:00,
2013-04-27 12:32:00,54.5,55.4,30.33,ESE,107,0.0,0.0,98,0.26,,,0.74,WUHU216WMR968SP,2013-04-27 16:32:00,
2013-04-27 12:37:00,54.3,53.6,30.33,ESE,107,0.0,0.0,98,0.26,,,0.78,WUHU216WMR968SP,2013-04-27 16:37:00,
2013-04-27 12:42:00,54.3,53.6,30.33,ENE,76,0.0,0.0,98,0.26,,,0.78,WUHU216WMR968SP,2013-04-27 16:42:00,
2013-04-27 12:47:00,54.1,53.6,30.33,ENE,66,0.0,4.1,98,0.26,,,0.82,WUHU216WMR968SP,2013-04-27 16:47:00,
2013-04-27 12:52:00,54.1,53.6,30.33,ENE,64,0.0,4.1,98,0.26,,,0.82,WUHU216WMR968SP,2013-04-27 16:52:00,
2013-04-27 12:57:00,54.1,53.6,30.33,NE,54,0.0,3.3,98,0.22,,,0.82,WUHU216WMR968SP,2013-04-27 16:57:00,
2013-04-27 13:02:00,54.0,53.6,30.33,ENE,75,0.0,3.3,98,0.26,,,0.87,WUHU216WMR968SP,2013-04-27 17:02:00,
2013-04-27 13:07:00,54.0,53.6,30.36,ENE,75,0.0,0.0,98,0.22,,,0.87,WUHU216WMR968SP,2013-04-27 17:07:00,
2013-04-27 13:12:00,54.0,53.6,30.36,NNE,20,0.0,0.0,98,0.22,,,0.91,WUHU216WMR968SP,2013-04-27 17:12:00,
2013-04-27 13:17:00,54.0,53.6,30.36,NNE,20,0.0,0.0,98,0.22,,,0.91,WUHU216WMR968SP,2013-04-27 17:17:00,
2013-04-27 13:22:00,54.0,53.6,30.33,NNE,20,0.0,0.0,98,0.26,,,0.96,WUHU216WMR968SP,2013-04-27 17:22:00,
2013-04-27 13:27:00,53.8,53.6,30.33,North,11,0.0,0.0,98,0.26,,,1.00,WUHU216WMR968SP,2013-04-27 17:27:00,
2013-04-27 13:32:00,53.6,53.6,30.33,East,81,0.0,4.1,98,0.31,,,1.04,WUHU216WMR968SP,2013-04-27 17:32:00,
2013-04-27 13:37:00,53.4,53.6,30.30,SE,131,0.0,4.1,98,0.26,,,1.04,WUHU216WMR968SP,2013-04-27 17:37:00,
2013-04-27 13:42:00,53.4,53.6,30.30,South,183,0.0,4.6,98,0.31,,,1.09,WUHU216WMR968SP,2013-04-27 17:42:00,
2013-04-27 13:47:00,53.6,53.6,30.30,SE,129,0.0,4.6,98,0.26,,,1.09,WUHU216WMR968SP,2013-04-27 17:47:00,
2013-04-27 13:52:00,53.6,53.6,30.30,NE,51,0.0,6.0,98,0.26,,,1.09,WUHU216WMR968SP,2013-04-27 17:52:00,
2013-04-27 13:57:00,53.6,53.6,30.30,NE,51,0.0,6.0,98,0.30,,,1.12,WUHU216WMR968SP,2013-04-27 17:57:00,
2013-04-27 14:02:00,53.8,53.6,30.30,NE,49,0.0,0.0,98,0.25,,,1.12,WUHU216WMR968SP,2013-04-27 18:02:00,
2013-04-27 14:07:00,53.8,53.6,30.30,SE,133,0.0,0.0,98,0.25,,,1.12,WUHU216WMR968SP,2013-04-27 18:07:00,
2013-04-27 14:12:00,54.0,53.6,30.30,SE,133,0.0,0.0,98,0.21,,,1.12,WUHU216WMR968SP,2013-04-27 18:12:00,
2013-04-27 14:17:00,54.0,53.6,30.30,SE,133,0.0,0.0,98,0.25,,,1.17,WUHU216WMR968SP,2013-04-27 18:17:00,
2013-04-27 14:22:00,54.1,53.6,30.33,SE,133,0.0,0.0,98,0.21,,,1.17,WUHU216WMR968SP,2013-04-27 18:22:00,
2013-04-27 14:27:00,53.8,53.6,30.33,ESE,102,0.0,0.0,98,0.16,,,1.17,WUHU216WMR968SP,2013-04-27 18:27:00,
2013-04-27 14:32:00,54.0,53.6,30.33,ESE,102,0.0,0.0,98,0.12,,,1.17,WUHU216WMR968SP,2013-04-27 18:32:00,
2013-04-27 14:37:00,54.0,53.6,30.30,East,100,0.0,0.0,98,0.16,,,1.21,WUHU216WMR968SP,2013-04-27 18:37:00,
2013-04-27 14:42:00,54.1,53.6,30.30,East,100,0.0,0.0,98,0.12,,,1.21,WUHU216WMR968SP,2013-04-27 18:42:00,
2013-04-27 14:47:00,54.1,53.6,30.30,East,100,0.0,0.0,98,0.12,,,1.21,WUHU216WMR968SP,2013-04-27 18:47:00,
2013-04-27 14:52:00,54.1,53.6,30.30,East,100,0.0,0.0,98,0.12,,,1.21,WUHU216WMR968SP,2013-04-27 18:52:00,
2013-04-27 14:57:00,54.1,53.6,30.30,East,100,0.0,0.0,98,0.09,,,1.21,WUHU216WMR968SP,2013-04-27 18:57:00,
2013-04-27 15:02:00,54.1,53.6,30.30,East,100,0.0,0.0,98,0.18,,,1.30,WUHU216WMR968SP,2013-04-27 19:02:00,
2013-04-27 15:07:00,54.0,53.6,30.27,East,80,0.0,0.0,98,0.18,,,1.30,WUHU216WMR968SP,2013-04-27 19:07:00,
2013-04-27 15:12:00,54.0,53.6,30.27,East,80,0.0,0.0,98,0.18,,,1.30,WUHU216WMR968SP,2013-04-27 19:12:00,
2013-04-27 15:17:00,54.0,53.6,30.27,East,80,0.0,0.0,98,0.18,,,1.34,WUHU216WMR968SP,2013-04-27 19:17:00,
2013-04-27 15:22:00,54.0,53.6,30.27,East,80,0.0,0.0,98,0.18,,,1.34,WUHU216WMR968SP,2013-04-27 19:22:00,
2013-04-27 15:27:00,54.0,53.6,30.27,East,80,0.0,0.0,98,0.18,,,1.34,WUHU216WMR968SP,2013-04-27 19:27:00,
2013-04-27 15:32:00,54.0,53.6,30.27,East,80,0.0,0.0,98,0.18,,,1.34,WUHU216WMR968SP,2013-04-27 19:32:00,
2013-04-27 15:37:00,53.8,53.6,30.27,East,80,0.0,0.0,98,0.18,,,1.39,WUHU216WMR968SP,2013-04-27 19:37:00,
2013-04-27 15:42:00,53.8,53.6,30.27,East,80,0.0,0.0,98,0.18,,,1.39,WUHU216WMR968SP,2013-04-27 19:42:00,
2013-04-27 15:47:00,53.8,53.6,30.27,East,80,0.0,0.0,98,0.18,,,1.39,WUHU216WMR968SP,2013-04-27 19:47:00,
2013-04-27 15:53:00,53.6,53.6,30.24,ENE,60,0.0,0.0,98,0.18,,,1.39,WUHU216WMR968SP,2013-04-27 19:53:00,
2013-04-27 15:58:00,53.6,53.6,30.24,ENE,60,0.0,0.0,98,0.18,,,1.39,WUHU216WMR968SP,2013-04-27 19:58:00,
2013-04-27 16:03:00,53.4,53.6,30.24,ENE,60,0.0,0.0,98,0.13,,,1.43,WUHU216WMR968SP,2013-04-27 20:03:00,
2013-04-27 16:08:00,53.4,53.6,30.24,ENE,60,0.0,0.0,98,0.13,,,1.43,WUHU216WMR968SP,2013-04-27 20:08:00,
2013-04-27 16:12:00,53.4,53.6,30.24,ENE,60,0.0,0.0,98,0.13,,,1.43,WUHU216WMR968SP,2013-04-27 20:12:00,
2013-04-27 16:17:00,53.2,53.6,30.24,ENE,75,0.0,0.0,98,0.09,,,1.43,WUHU216WMR968SP,2013-04-27 20:17:00,
2013-04-27 16:22:00,53.2,53.6,30.24,ENE,77,0.0,0.0,98,0.13,,,1.47,WUHU216WMR968SP,2013-04-27 20:22:00,
2013-04-27 16:27:00,53.4,53.6,30.24,ENE,73,0.0,0.0,98,0.13,,,1.47,WUHU216WMR968SP,2013-04-27 20:27:00,
2013-04-27 16:32:00,53.4,53.6,30.24,ENE,73,0.0,0.0,98,0.13,,,1.47,WUHU216WMR968SP,2013-04-27 20:32:00,
2013-04-27 16:37:00,53.6,53.6,30.24,ENE,73,0.0,0.0,98,0.09,,,1.47,WUHU216WMR968SP,2013-04-27 20:37:00,
2013-04-27 16:42:00,53.4,53.6,30.24,ENE,73,0.0,0.0,98,0.09,,,1.47,WUHU216WMR968SP,2013-04-27 20:42:00,
2013-04-27 16:47:00,53.4,53.6,30.24,ENE,73,0.0,0.0,98,0.09,,,1.47,WUHU216WMR968SP,2013-04-27 20:47:00,
2013-04-27 16:52:00,53.4,53.6,30.24,ENE,73,0.0,0.0,98,0.09,,,1.47,WUHU216WMR968SP,2013-04-27 20:52:00,
2013-04-27 16:57:00,53.4,53.6,30.24,ENE,73,0.0,0.0,98,0.09,,,1.47,WUHU216WMR968SP,2013-04-27 20:57:00,
2013-04-27 17:02:00,53.6,53.6,30.24,ENE,73,0.0,0.0,98,0.04,,,1.47,WUHU216WMR968SP,2013-04-27 21:02:00,
2013-04-27 17:07:00,53.6,53.6,30.21,ENE,73,0.0,0.0,98,0.04,,,1.47,WUHU216WMR968SP,2013-04-27 21:07:00,
2013-04-27 17:12:00,53.6,53.6,30.21,ENE,73,0.0,0.0,98,0.09,,,1.52,WUHU216WMR968SP,2013-04-27 21:12:00,
2013-04-27 17:17:00,53.6,53.6,30.21,ENE,73,0.0,0.0,98,0.09,,,1.52,WUHU216WMR968SP,2013-04-27 21:17:00,
2013-04-27 17:22:00,53.6,53.6,30.21,ENE,73,0.0,0.0,98,0.04,,,1.52,WUHU216WMR968SP,2013-04-27 21:22:00,
2013-04-27 17:27:00,53.6,53.6,30.21,ENE,73,0.0,0.0,98,0.04,,,1.52,WUHU216WMR968SP,2013-04-27 21:27:00,
2013-04-27 17:32:00,53.8,53.6,30.21,ENE,73,0.0,0.0,98,0.04,,,1.52,WUHU216WMR968SP,2013-04-27 21:32:00,
2013-04-27 17:37:00,53.8,53.6,30.21,ENE,75,0.0,0.0,98,0.04,,,1.52,WUHU216WMR968SP,2013-04-27 21:37:00,
2013-04-27 17:42:00,53.8,53.6,30.21,ENE,65,0.0,0.0,98,0.04,,,1.52,WUHU216WMR968SP,2013-04-27 21:42:00,
2013-04-27 17:47:00,53.8,53.6,30.21,SSE,154,0.0,0.0,98,0.04,,,1.52,WUHU216WMR968SP,2013-04-27 21:47:00,
2013-04-27 17:53:00,53.6,53.6,30.21,ESE,107,0.0,0.0,98,0.04,,,1.52,WUHU216WMR968SP,2013-04-27 21:53:00,
2013-04-27 17:57:00,53.6,53.6,30.21,ESE,107,0.0,0.0,98,0.04,,,1.52,WUHU216WMR968SP,2013-04-27 21:57:00,
2013-04-27 18:03:00,53.6,53.6,30.21,ESE,107,0.0,0.0,98,0.04,,,1.52,WUHU216WMR968SP,2013-04-27 22:03:00,
2013-04-27 18:08:00,53.6,53.6,30.21,ESE,107,0.0,0.0,98,0.04,,,1.52,WUHU216WMR968SP,2013-04-27 22:08:00,
2013-04-27 18:13:00,53.6,53.6,30.21,ESE,107,0.0,0.0,98,0.00,,,1.52,WUHU216WMR968SP,2013-04-27 22:13:00,
2013-04-27 18:18:00,53.6,53.6,30.21,ESE,107,0.0,0.0,98,0.00,,,1.52,WUHU216WMR968SP,2013-04-27 22:18:00,
2013-04-27 18:23:00,53.4,53.6,30.21,ESE,107,0.0,0.0,98,0.00,,,1.52,WUHU216WMR968SP,2013-04-27 22:23:00,
2013-04-27 18:28:00,53.6,53.6,30.21,ESE,107,0.0,0.0,98,0.00,,,1.52,WUHU216WMR968SP,2013-04-27 22:28:00,
2013-04-27 18:33:00,53.4,53.6,30.21,ESE,107,0.0,0.0,98,0.04,,,1.56,WUHU216WMR968SP,2013-04-27 22:33:00,
2013-04-27 18:38:00,53.2,53.6,30.21,ESE,107,0.0,0.0,98,0.04,,,1.56,WUHU216WMR968SP,2013-04-27 22:38:00,
2013-04-27 18:43:00,53.1,53.6,30.21,East,101,0.0,0.0,98,0.04,,,1.56,WUHU216WMR968SP,2013-04-27 22:43:00,
2013-04-27 18:48:00,53.1,53.6,30.21,East,101,0.0,0.0,98,0.09,,,1.61,WUHU216WMR968SP,2013-04-27 22:48:00,
2013-04-27 18:53:00,53.1,53.6,30.21,East,101,0.0,0.0,98,0.13,,,1.65,WUHU216WMR968SP,2013-04-27 22:53:00,
2013-04-27 18:58:00,52.9,53.6,30.21,East,101,0.0,0.0,98,0.13,,,1.65,WUHU216WMR968SP,2013-04-27 22:58:00,
2013-04-27 19:03:00,52.9,53.6,30.21,East,101,0.0,0.0,98,0.18,,,1.69,WUHU216WMR968SP,2013-04-27 23:03:00,
2013-04-27 19:08:00,52.9,53.6,30.18,East,101,0.0,0.0,98,0.18,,,1.69,WUHU216WMR968SP,2013-04-27 23:08:00,
2013-04-27 19:13:00,53.1,53.6,30.18,East,101,0.0,0.0,98,0.18,,,1.69,WUHU216WMR968SP,2013-04-27 23:13:00,
2013-04-27 19:18:00,53.1,53.6,30.18,East,101,0.0,0.0,98,0.18,,,1.69,WUHU216WMR968SP,2013-04-27 23:18:00,
2013-04-27 19:23:00,52.9,53.6,30.15,East,101,0.0,0.0,98,0.22,,,1.74,WUHU216WMR968SP,2013-04-27 23:23:00,
2013-04-27 19:28:00,52.9,53.6,30.15,East,101,0.0,0.0,98,0.22,,,1.74,WUHU216WMR968SP,2013-04-27 23:28:00,
2013-04-27 19:33:00,52.9,53.6,30.15,East,101,0.0,0.0,98,0.18,,,1.74,WUHU216WMR968SP,2013-04-27 23:33:00,
2013-04-27 19:38:00,52.9,53.6,30.18,East,101,0.0,0.0,98,0.18,,,1.74,WUHU216WMR968SP,2013-04-27 23:38:00,
2013-04-27 19:43:00,52.9,53.6,30.18,East,101,0.0,0.0,98,0.18,,,1.74,WUHU216WMR968SP,2013-04-27 23:43:00,
2013-04-27 19:48:00,52.9,53.6,30.18,East,101,0.0,0.0,98,0.13,,,1.74,WUHU216WMR968SP,2013-04-27 23:48:00,
2013-04-27 19:53:00,52.9,53.6,30.15,East,101,0.0,0.0,98,0.09,,,1.74,WUHU216WMR968SP,2013-04-27 23:53:00,
2013-04-27 19:58:00,52.9,53.6,30.15,East,101,0.0,0.0,98,0.09,,,1.74,WUHU216WMR968SP,2013-04-27 23:58:00,
2013-04-27 20:03:00,52.9,53.6,30.15,East,101,0.0,0.0,98,0.04,,,1.74,WUHU216WMR968SP,2013-04-28 00:03:00,
2013-04-27 20:08:00,52.9,53.6,30.15,East,101,0.0,0.0,98,0.04,,,1.74,WUHU216WMR968SP,2013-04-28 00:08:00,
2013-04-27 20:13:00,52.9,53.6,30.15,East,101,0.0,0.0,98,0.04,,,1.74,WUHU216WMR968SP,2013-04-28 00:13:00,
2013-04-27 20:18:00,52.9,53.6,30.15,East,101,0.0,0.0,98,0.04,,,1.74,WUHU216WMR968SP,2013-04-28 00:18:00,
2013-04-27 20:23:00,52.9,53.6,30.18,East,101,0.0,0.0,98,0.00,,,1.74,WUHU216WMR968SP,2013-04-28 00:23:00,
2013-04-27 20:28:00,52.9,53.6,30.18,East,101,0.0,0.0,98,0.00,,,1.74,WUHU216WMR968SP,2013-04-28 00:28:00,
2013-04-27 20:33:00,52.9,53.6,30.18,East,101,0.0,0.0,98,0.00,,,1.74,WUHU216WMR968SP,2013-04-28 00:33:00,
2013-04-27 20:38:00,52.9,53.6,30.18,East,101,0.0,0.0,98,0.00,,,1.74,WUHU216WMR968SP,2013-04-28 00:38:00,
2013-04-27 20:43:00,53.1,53.6,30.18,East,101,0.0,0.0,98,0.00,,,1.74,WUHU216WMR968SP,2013-04-28 00:43:00,
2013-04-27 20:48:00,53.1,53.6,30.18,East,101,0.0,0.0,98,0.00,,,1.74,WUHU216WMR968SP,2013-04-28 00:48:00,
2013-04-27 20:53:00,53.1,53.6,30.15,East,101,0.0,0.0,98,0.00,,,1.74,WUHU216WMR968SP,2013-04-28 00:53:00,
2013-04-27 20:58:00,53.1,53.6,30.15,East,101,0.0,0.0,98,0.00,,,1.74,WUHU216WMR968SP,2013-04-28 00:58:00,
2013-04-27 21:03:00,53.1,53.6,30.15,East,101,0.0,0.0,98,0.00,,,1.74,WUHU216WMR968SP,2013-04-28 01:03:00,
2013-04-27 21:08:00,53.1,53.6,30.15,East,101,0.0,0.0,98,0.00,,,1.74,WUHU216WMR968SP,2013-04-28 01:08:00,
2013-04-27 21:13:00,53.1,53.6,30.15,East,101,0.0,0.0,98,0.00,,,1.74,WUHU216WMR968SP,2013-04-28 01:13:00,
2013-04-27 21:18:00,53.1,53.6,30.15,East,101,0.0,0.0,98,0.00,,,1.74,WUHU216WMR968SP,2013-04-28 01:18:00,
2013-04-27 21:23:00,53.1,53.6,30.15,East,101,0.0,0.0,98,0.00,,,1.74,WUHU216WMR968SP,2013-04-28 01:23:00,
2013-04-27 21:28:00,52.9,53.6,30.15,East,101,0.0,0.0,98,0.00,,,1.74,WUHU216WMR968SP,2013-04-28 01:28:00,
2013-04-27 21:33:00,52.9,53.6,30.15,East,101,0.0,0.0,98,0.00,,,1.74,WUHU216WMR968SP,2013-04-28 01:33:00,
2013-04-27 21:38:00,52.9,53.6,30.15,East,101,0.0,0.0,98,0.00,,,1.74,WUHU216WMR968SP,2013-04-28 01:38:00,
2013-04-27 21:43:00,52.9,53.6,30.15,East,101,0.0,0.0,98,0.00,,,1.74,WUHU216WMR968SP,2013-04-28 01:43:00,
2013-04-27 21:48:00,52.9,53.6,30.15,East,101,0.0,0.0,98,0.00,,,1.74,WUHU216WMR968SP,2013-04-28 01:48:00,
2013-04-27 21:53:00,52.9,53.6,30.15,East,101,0.0,0.0,98,0.00,,,1.74,WUHU216WMR968SP,2013-04-28 01:53:00,
2013-04-27 21:58:00,52.9,53.6,30.15,East,101,0.0,0.0,98,0.00,,,1.74,WUHU216WMR968SP,2013-04-28 01:58:00,
2013-04-27 22:03:00,52.9,53.6,30.15,East,101,0.0,0.0,98,0.00,,,1.74,WUHU216WMR968SP,2013-04-28 02:03:00,
2013-04-27 22:08:00,52.9,53.6,30.12,East,101,0.0,0.0,98,0.00,,,1.74,WUHU216WMR968SP,2013-04-28 02:08:00,
2013-04-27 22:13:00,52.9,53.6,30.12,East,101,0.0,0.0,98,0.00,,,1.74,WUHU216WMR968SP,2013-04-28 02:13:00,
2013-04-27 22:18:00,52.9,53.6,30.12,East,101,0.0,0.0,98,0.00,,,1.74,WUHU216WMR968SP,2013-04-28 02:18:00,
2013-04-27 22:23:00,52.9,53.6,30.15,East,101,0.0,0.0,98,0.00,,,1.74,WUHU216WMR968SP,2013-04-28 02:23:00,
2013-04-27 22:28:00,52.9,53.6,30.15,East,101,0.0,0.0,98,0.00,,,1.74,WUHU216WMR968SP,2013-04-28 02:28:00,
2013-04-27 22:33:00,53.1,53.6,30.15,East,101,0.0,0.0,98,0.00,,,1.74,WUHU216WMR968SP,2013-04-28 02:33:00,
2013-04-27 22:38:00,53.1,53.6,30.15,East,101,0.0,0.0,98,0.00,,,1.74,WUHU216WMR968SP,2013-04-28 02:38:00,
2013-04-27 22:43:00,53.1,53.6,30.15,East,101,0.0,0.0,98,0.00,,,1.74,WUHU216WMR968SP,2013-04-28 02:43:00,
2013-04-27 22:48:00,53.1,53.6,30.15,East,101,0.0,0.0,98,0.00,,,1.74,WUHU216WMR968SP,2013-04-28 02:48:00,
2013-04-27 22:53:00,53.1,53.6,30.15,East,101,0.0,0.0,98,0.00,,,1.74,WUHU216WMR968SP,2013-04-28 02:53:00,
2013-04-27 22:58:00,53.1,53.6,30.15,East,101,0.0,0.0,98,0.00,,,1.74,WUHU216WMR968SP,2013-04-28 02:58:00,
2013-04-27 23:03:00,53.1,53.6,30.15,East,101,0.0,0.0,98,0.00,,,1.74,WUHU216WMR968SP,2013-04-28 03:03:00,
2013-04-27 23:08:00,53.1,53.6,30.12,East,101,0.0,0.0,98,0.00,,,1.74,WUHU216WMR968SP,2013-04-28 03:08:00,
2013-04-27 23:13:00,53.1,53.6,30.12,East,101,0.0,0.0,98,0.00,,,1.74,WUHU216WMR968SP,2013-04-28 03:13:00,
2013-04-27 23:18:00,53.1,53.6,30.12,East,101,0.0,0.0,98,0.00,,,1.74,WUHU216WMR968SP,2013-04-28 03:18:00,
2013-04-27 23:23:00,53.1,53.6,30.12,East,101,0.0,0.0,98,0.00,,,1.74,WUHU216WMR968SP,2013-04-28 03:23:00,
2013-04-27 23:28:00,53.1,53.6,30.12,East,101,0.0,0.0,98,0.00,,,1.74,WUHU216WMR968SP,2013-04-28 03:28:00,
2013-04-27 23:33:00,53.1,53.6,30.12,East,101,0.0,0.0,98,0.00,,,1.74,WUHU216WMR968SP,2013-04-28 03:33:00,
2013-04-27 23:38:00,53.2,53.6,30.12,East,101,0.0,0.0,98,0.00,,,1.74,WUHU216WMR968SP,2013-04-28 03:38:00,
2013-04-27 23:43:00,53.2,53.6,30.12,East,101,0.0,0.0,98,0.00,,,1.74,WUHU216WMR968SP,2013-04-28 03:43:00,
2013-04-27 23:48:00,53.2,53.6,30.12,East,101,0.0,0.0,98,0.00,,,1.74,WUHU216WMR968SP,2013-04-28 03:48:00,
2013-04-27 23:53:00,53.2,53.6,30.15,East,101,0.0,0.0,98,0.00,,,1.74,WUHU216WMR968SP,2013-04-28 03:53:00,
2013-04-27 23:58:00,53.2,53.6,30.15,East,101,0.0,0.0,98,0.00,,,1.74,WUHU216WMR968SP,2013-04-28 03:58:00,